Gainesville, New York
Current Conditions -  °F | °C
As of 11:54 AM on Wednesday 22 Oct 2014 (Local Time) from KDSV Reporting Station
Overcast Overcast  
Wind Chill: 41°   Ceiling: 1200
Heat Index: 46°   Visibility: 10mi
Dew Point: 43°   Wind: 10mph
Humidity: 89%   Direction: 350°N
Pressure: 30.2"   Gusts: NA
Location:  42.64°N, 78.13°W
Report Text: KDSV 221554Z AUTO 35009KT 10SM OVC012 08/06 A3020 RMK AO2 SLP237 T00780061
Loading
Personal Weather Stations






























Interactive Weather Map
Tropical Storm Tracking
New forecast layout! Learn more

10-Day Weather Forecast

Advertisements
Track Severe Weather on mobile